createdAt,value
2018-12-15T00:01:51.047Z,10.97
2018-12-15T00:04:23.510Z,12.77
2018-12-15T00:06:59.608Z,11.77
2018-12-15T00:09:30.476Z,13.77
2018-12-15T00:12:00.744Z,12.67
2018-12-15T00:14:31.245Z,11.97
2018-12-15T00:17:05.736Z,12.03
2018-12-15T00:19:34.266Z,13.20
2018-12-15T00:22:04.886Z,11.70
2018-12-15T00:24:35.260Z,12.33
2018-12-15T00:27:05.661Z,11.97
2018-12-15T00:29:35.887Z,12.53
2018-12-15T00:32:06.229Z,11.63
2018-12-15T00:34:37.765Z,11.60
2018-12-15T00:37:08.090Z,12.83
2018-12-15T00:39:38.513Z,13.03
2018-12-15T00:42:09.673Z,12.00
2018-12-15T00:44:40.095Z,12.70
2018-12-15T00:47:13.849Z,11.57
2018-12-15T00:49:42.796Z,11.87
2018-12-15T00:52:13.199Z,11.77
2018-12-15T00:54:43.731Z,11.90
2018-12-15T00:57:14.196Z,12.60
2018-12-15T00:59:44.527Z,13.23
2018-12-15T01:02:14.917Z,11.63
2018-12-15T01:04:45.261Z,12.33
2018-12-15T01:07:15.695Z,12.07
2018-12-15T01:09:46.636Z,11.27
2018-12-15T01:12:16.980Z,11.87
2018-12-15T01:14:47.286Z,11.60
2018-12-15T01:17:20.483Z,11.23
2018-12-15T01:19:49.964Z,11.30
2018-12-15T01:22:20.393Z,12.60
2018-12-15T01:24:50.635Z,12.43
2018-12-15T01:27:21.069Z,11.70
2018-12-15T01:29:51.282Z,11.73
2018-12-15T01:32:21.525Z,10.63
2018-12-15T01:34:51.732Z,12.47
2018-12-15T01:37:22.076Z,12.07
2018-12-15T01:39:52.702Z,12.43
2018-12-15T01:42:23.879Z,12.60
2018-12-15T01:44:54.297Z,11.70
2018-12-15T01:47:27.071Z,11.67
2018-12-15T01:49:56.877Z,12.40
2018-12-15T01:52:27.294Z,12.33
2018-12-15T01:54:57.746Z,12.70
2018-12-15T01:57:28.056Z,11.47
2018-12-15T01:59:58.462Z,11.23
2018-12-15T02:02:29.266Z,12.50
2018-12-15T02:04:59.645Z,12.10
2018-12-15T02:07:30.229Z,13.00
2018-12-15T02:10:01.435Z,11.30
2018-12-15T02:12:31.683Z,12.53
2018-12-15T02:15:02.012Z,13.00
2018-12-15T02:17:33.770Z,13.03
2018-12-15T02:20:05.221Z,11.73
2018-12-15T02:22:35.625Z,12.40
2018-12-15T02:25:06.149Z,12.53
2018-12-15T02:27:36.452Z,12.67
2018-12-15T02:30:07.446Z,12.93
2018-12-15T02:32:37.971Z,11.73
2018-12-15T02:35:09.282Z,11.43
2018-12-15T02:37:39.637Z,12.63
2018-12-15T02:40:10.056Z,12.47
2018-12-15T02:42:40.751Z,13.27
2018-12-15T02:45:10.964Z,14.10
2018-12-15T02:47:42.081Z,12.50
2018-12-15T02:50:12.810Z,13.03
2018-12-15T02:52:43.348Z,11.30
2018-12-15T02:55:13.767Z,10.97
2018-12-15T02:57:44.191Z,13.43
2018-12-15T03:00:14.593Z,12.13
2018-12-15T03:02:44.809Z,13.00
2018-12-15T03:05:15.199Z,12.10
2018-12-15T03:07:45.504Z,11.90
2018-12-15T03:10:16.884Z,11.73
2018-12-15T03:12:47.266Z,12.00
2018-12-15T03:15:17.874Z,12.30
2018-12-15T03:17:49.036Z,11.87
2018-12-15T03:20:19.502Z,11.07
2018-12-15T03:22:49.718Z,12.33
2018-12-15T03:25:19.960Z,11.67
2018-12-15T03:27:50.271Z,12.23
2018-12-15T03:30:20.386Z,12.43
2018-12-15T03:32:50.718Z,12.20
2018-12-15T03:35:21.124Z,12.27
2018-12-15T03:37:51.475Z,12.73
2018-12-15T03:40:22.470Z,12.10
2018-12-15T03:42:53.597Z,13.03
2018-12-15T03:45:26.322Z,12.00
2018-12-15T03:47:56.527Z,11.20
2018-12-15T03:50:26.906Z,12.47
2018-12-15T03:52:57.440Z,13.60
2018-12-15T03:55:27.750Z,11.77
2018-12-15T03:57:58.397Z,12.63
2018-12-15T04:00:28.727Z,12.13
2018-12-15T04:02:58.950Z,11.93
2018-12-15T04:05:29.272Z,11.93
2018-12-15T04:07:59.533Z,12.13
2018-12-15T04:10:30.641Z,13.43
2018-12-15T04:13:01.073Z,11.73
2018-12-15T04:15:31.294Z,12.20
2018-12-15T04:18:03.869Z,13.30
2018-12-15T04:20:34.333Z,11.97
2018-12-15T04:23:04.523Z,11.50
2018-12-15T04:25:35.940Z,12.97
2018-12-15T04:28:06.287Z,12.07
2018-12-15T04:30:36.851Z,11.63
2018-12-15T04:33:07.063Z,11.47
2018-12-15T04:35:37.300Z,11.40
2018-12-15T04:38:07.599Z,11.93
2018-12-15T04:40:38.391Z,12.30
2018-12-15T04:43:09.757Z,10.93
2018-12-15T04:45:40.242Z,11.97
2018-12-15T04:48:11.483Z,11.23
2018-12-15T04:50:42.018Z,11.60
2018-12-15T04:53:15.325Z,10.93
2018-12-15T04:55:45.645Z,12.53
2018-12-15T04:58:15.960Z,12.20
2018-12-15T05:00:46.219Z,11.63
2018-12-15T05:03:16.516Z,12.23
2018-12-15T05:05:46.928Z,12.07
2018-12-15T05:08:17.174Z,11.57
2018-12-15T05:10:48.921Z,11.67
2018-12-15T05:13:19.266Z,11.53
2018-12-15T05:15:49.660Z,12.00
2018-12-15T05:18:20.018Z,11.33
2018-12-15T05:20:50.433Z,10.93
2018-12-15T05:23:20.843Z,10.87
2018-12-15T05:25:51.277Z,11.43
2018-12-15T05:28:21.511Z,11.40
2018-12-15T05:30:51.845Z,12.00
2018-12-15T05:33:22.069Z,12.20
2018-12-15T05:35:52.294Z,10.73
2018-12-15T05:38:22.670Z,10.90
2018-12-15T05:40:53.257Z,12.63
2018-12-15T05:43:23.661Z,10.87
2018-12-15T05:45:54.534Z,10.97
2018-12-15T05:48:25.890Z,10.70
2018-12-15T05:50:56.281Z,10.80
2018-12-15T05:53:26.732Z,9.60
2018-12-15T05:55:57.167Z,10.50
2018-12-15T05:58:27.573Z,10.37
2018-12-15T06:00:57.960Z,9.87
2018-12-15T06:03:28.259Z,11.00
2018-12-15T06:05:58.540Z,10.07
2018-12-15T06:08:29.099Z,9.80
2018-12-15T06:10:59.839Z,10.80
2018-12-15T06:13:30.280Z,9.00
2018-12-15T06:16:00.811Z,9.93
2018-12-15T06:18:31.736Z,9.60
2018-12-15T06:21:02.464Z,10.37
2018-12-15T06:23:33.491Z,10.13
2018-12-15T06:26:04.989Z,9.80
2018-12-15T06:28:35.280Z,10.40
2018-12-15T06:31:05.735Z,10.70
2018-12-15T06:33:37.284Z,10.63
2018-12-15T06:36:07.534Z,11.10
2018-12-15T06:38:37.931Z,9.37
2018-12-15T06:41:08.462Z,10.30
2018-12-15T06:43:39.091Z,10.47
2018-12-15T06:46:09.903Z,10.23
2018-12-15T06:48:40.221Z,10.57
2018-12-15T06:51:10.515Z,9.30
2018-12-15T06:53:40.794Z,10.57
2018-12-15T06:56:11.167Z,10.50
2018-12-15T06:58:41.574Z,11.37
2018-12-15T07:01:12.041Z,10.60
2018-12-15T07:03:42.521Z,9.80
2018-12-15T07:06:13.174Z,9.53
2018-12-15T07:08:43.456Z,10.43
2018-12-15T07:11:13.858Z,10.63
2018-12-15T07:13:44.260Z,9.83
2018-12-15T07:16:14.700Z,10.17
2018-12-15T07:18:45.143Z,11.10
2018-12-15T07:21:15.612Z,9.70
2018-12-15T07:23:46.088Z,10.63
2018-12-15T07:26:16.461Z,10.60
2018-12-15T07:28:46.949Z,9.87
2018-12-15T07:31:17.621Z,9.90
2018-12-15T07:33:48.133Z,10.20
2018-12-15T07:36:18.846Z,10.40
2018-12-15T07:38:49.270Z,10.23
2018-12-15T07:41:19.906Z,10.90
2018-12-15T07:43:50.972Z,10.53
2018-12-15T07:46:21.491Z,10.63
2018-12-15T07:48:51.979Z,10.23
2018-12-15T07:51:22.345Z,10.93
2018-12-15T07:53:52.599Z,10.07
2018-12-15T07:56:26.985Z,10.40
2018-12-15T07:58:57.194Z,10.80
2018-12-15T08:01:27.439Z,9.63
2018-12-15T08:03:57.871Z,9.13
2018-12-15T08:06:28.298Z,9.53
2018-12-15T08:08:58.740Z,10.57
2018-12-15T08:12:35.905Z,10.03
2018-12-15T08:15:06.903Z,10.20
2018-12-15T08:17:37.512Z,11.00
2018-12-15T08:20:09.858Z,10.27
2018-12-15T08:22:40.231Z,11.07
2018-12-15T08:25:10.543Z,10.00
2018-12-15T08:27:40.909Z,10.07
2018-12-15T08:30:12.175Z,8.87
2018-12-15T08:32:42.500Z,9.77
2018-12-15T08:35:13.020Z,9.63
2018-12-15T08:37:43.440Z,10.47
2018-12-15T08:40:14.076Z,10.70
2018-12-15T08:42:44.350Z,10.03
2018-12-15T08:45:15.764Z,9.63
2018-12-15T08:47:46.189Z,9.70
2018-12-15T08:50:16.532Z,10.13
2018-12-15T08:52:46.941Z,9.03
2018-12-15T08:55:17.261Z,9.50
2018-12-15T08:57:47.659Z,9.70
2018-12-15T09:00:17.938Z,10.60
2018-12-15T09:02:48.383Z,8.90
2018-12-15T09:05:18.795Z,8.50
2018-12-15T09:07:49.320Z,9.97
2018-12-15T09:10:19.902Z,8.97
2018-12-15T09:12:50.268Z,9.20
2018-12-15T09:15:20.592Z,9.70
2018-12-15T09:17:51.072Z,9.43
2018-12-15T09:20:21.654Z,9.23
2018-12-15T09:22:52.031Z,9.77
2018-12-15T09:25:22.375Z,8.70
2018-12-15T09:27:52.876Z,9.03
2018-12-15T09:30:23.272Z,9.27
2018-12-15T09:32:53.732Z,8.13
2018-12-15T09:35:24.232Z,8.23
2018-12-15T09:37:54.683Z,8.03
2018-12-15T09:40:24.881Z,8.93
2018-12-15T09:42:55.543Z,10.83
2018-12-15T09:45:27.358Z,9.10
2018-12-15T09:47:58.125Z,8.77
2018-12-15T09:50:28.683Z,11.35
2018-12-15T09:52:58.905Z,8.50
2018-12-15T09:55:29.134Z,9.43
2018-12-15T09:57:59.671Z,10.85
2018-12-15T10:00:30.184Z,10.98
2018-12-15T10:03:00.590Z,11.57
2018-12-15T10:05:30.942Z,10.60
2018-12-15T10:08:01.265Z,11.40
2018-12-15T10:10:32.804Z,8.67
2018-12-15T10:13:38.633Z,9.23
2018-12-15T10:16:08.992Z,8.57
2018-12-15T10:18:39.327Z,8.40
2018-12-15T10:21:09.764Z,8.50
2018-12-15T10:23:40.160Z,8.30
2018-12-15T10:26:11.203Z,9.20
2018-12-15T10:28:41.845Z,7.63
2018-12-15T10:31:17.991Z,9.37
2018-12-15T10:33:48.505Z,8.43
2018-12-15T10:36:18.870Z,8.33
2018-12-15T10:38:49.396Z,8.83
2018-12-15T10:41:19.741Z,8.60
2018-12-15T10:43:49.949Z,8.73
2018-12-15T10:46:22.461Z,8.60
2018-12-15T10:48:54.890Z,7.90
2018-12-15T10:51:25.235Z,8.00
2018-12-15T10:53:55.715Z,7.57
2018-12-15T10:56:26.073Z,7.33
2018-12-15T10:58:57.531Z,7.20
2018-12-15T11:01:31.709Z,7.80
2018-12-15T11:04:02.132Z,7.03
2018-12-15T11:06:33.700Z,7.63
2018-12-15T11:09:07.616Z,8.20
2018-12-15T11:11:40.992Z,7.60
2018-12-15T11:14:11.505Z,7.80
2018-12-15T11:16:41.815Z,7.83
2018-12-15T11:19:12.545Z,8.13
2018-12-15T11:21:43.059Z,7.37
2018-12-15T11:24:13.579Z,7.97
2018-12-15T11:26:43.965Z,8.50
2018-12-15T11:29:14.357Z,7.93
2018-12-15T11:31:44.800Z,8.17
2018-12-15T11:34:15.407Z,7.93
2018-12-15T11:36:45.786Z,9.50
2018-12-15T11:39:16.324Z,8.63
2018-12-15T11:41:46.639Z,9.10
2018-12-15T11:44:16.953Z,8.53
2018-12-15T11:46:47.833Z,7.83
2018-12-15T11:49:18.402Z,8.53
2018-12-15T11:51:48.756Z,8.97
2018-12-15T11:54:19.165Z,8.23
2018-12-15T11:56:50.613Z,8.97
2018-12-15T11:59:22.162Z,9.70
2018-12-15T12:01:53.202Z,9.40
2018-12-15T12:04:23.758Z,8.33
2018-12-15T12:06:54.836Z,8.90
2018-12-15T12:09:25.332Z,8.23
2018-12-15T12:11:56.475Z,8.67
2018-12-15T12:14:26.927Z,9.83
2018-12-15T12:16:57.316Z,7.77
2018-12-15T12:19:28.151Z,9.17
2018-12-15T12:21:58.809Z,11.73
2018-12-15T12:24:29.406Z,8.23
2018-12-15T12:27:00.707Z,10.75
2018-12-15T12:29:31.107Z,8.40
2018-12-15T12:32:01.766Z,8.33
2018-12-15T12:34:32.237Z,11.90
2018-12-15T12:37:03.377Z,8.73
2018-12-15T12:39:33.846Z,10.38
2018-12-15T12:42:04.251Z,10.40
2018-12-15T12:44:34.624Z,8.73
2018-12-15T12:47:06.221Z,7.80
2018-12-15T12:49:36.819Z,7.00
2018-12-15T12:52:07.113Z,8.37
2018-12-15T12:54:38.415Z,7.83
2018-12-15T12:57:10.176Z,8.43
2018-12-15T12:59:40.570Z,9.33
2018-12-15T13:02:11.234Z,9.43
2018-12-15T13:04:41.552Z,10.70
2018-12-15T13:07:11.943Z,8.97
2018-12-15T13:09:42.354Z,8.10
2018-12-15T13:12:13.904Z,9.07
2018-12-15T13:14:44.253Z,10.90
2018-12-15T13:17:14.836Z,11.20
2018-12-15T13:19:45.314Z,11.48
2018-12-15T13:22:15.827Z,10.53
2018-12-15T13:24:46.082Z,8.93
2018-12-15T13:27:16.641Z,7.53
2018-12-15T13:29:47.038Z,7.90
2018-12-15T13:32:18.283Z,8.07
2018-12-15T13:34:48.865Z,8.63
2018-12-15T13:37:19.498Z,10.43
2018-12-15T13:39:49.869Z,10.35
2018-12-15T13:42:20.301Z,11.20
2018-12-15T13:44:51.406Z,10.43
2018-12-15T13:47:22.789Z,11.35
2018-12-15T13:49:53.237Z,10.63
2018-12-15T13:52:23.749Z,8.10
2018-12-15T13:54:54.243Z,7.17
2018-12-15T13:57:24.680Z,8.07
2018-12-15T13:59:55.203Z,8.17
2018-12-15T14:02:25.713Z,8.13
2018-12-15T14:04:56.114Z,8.83
2018-12-15T14:07:26.605Z,8.10
2018-12-15T14:09:57.473Z,7.50
2018-12-15T14:12:29.276Z,7.70
2018-12-15T14:14:59.668Z,8.33
2018-12-15T14:17:30.230Z,10.25
2018-12-15T14:20:00.653Z,8.00
2018-12-15T14:22:32.237Z,8.40
2018-12-15T14:25:03.491Z,9.03
2018-12-15T14:27:35.656Z,8.97
2018-12-15T14:30:07.141Z,7.83
2018-12-15T14:32:37.592Z,8.73
2018-12-15T14:35:08.392Z,8.07
2018-12-15T14:37:38.654Z,10.87
2018-12-15T14:40:09.030Z,9.70
2018-12-15T14:42:39.463Z,8.50
2018-12-15T14:45:10.027Z,8.83
2018-12-15T14:47:41.051Z,10.50
2018-12-15T14:50:11.726Z,11.18
2018-12-15T14:52:42.163Z,11.10
2018-12-15T14:55:12.573Z,11.15
2018-12-15T14:57:42.890Z,11.28
2018-12-15T15:00:13.485Z,11.97
2018-12-15T15:02:43.917Z,11.43
2018-12-15T15:05:15.322Z,9.37
2018-12-15T15:07:45.738Z,9.77
2018-12-15T15:10:15.963Z,9.00
2018-12-15T15:12:48.257Z,9.70
2018-12-15T15:15:18.729Z,9.20
2018-12-15T15:17:49.130Z,8.70
2018-12-15T15:20:19.657Z,8.83
2018-12-15T15:22:50.229Z,7.67
2018-12-15T15:25:20.889Z,9.13
2018-12-15T15:27:51.281Z,8.53
2018-12-15T15:30:21.858Z,9.10
2018-12-15T15:32:52.347Z,8.87
2018-12-15T15:35:22.804Z,8.83
2018-12-15T15:37:54.222Z,9.07
2018-12-15T15:40:24.895Z,9.37
2018-12-15T15:42:55.196Z,8.70
2018-12-15T15:45:25.568Z,9.47
2018-12-15T15:47:56.376Z,10.10
2018-12-15T15:50:26.852Z,12.23
2018-12-15T15:52:57.282Z,9.67
2018-12-15T15:55:28.025Z,9.27
2018-12-15T15:57:58.493Z,8.80
2018-12-15T16:00:29.061Z,8.93
2018-12-15T16:02:59.674Z,8.17
2018-12-15T16:05:30.622Z,8.87
2018-12-15T16:08:01.646Z,9.03
2018-12-15T16:10:32.058Z,8.87
2018-12-15T16:13:02.970Z,9.43
2018-12-15T16:15:33.370Z,9.50
2018-12-15T16:18:03.736Z,9.20
2018-12-15T16:20:34.228Z,9.23
2018-12-15T16:23:04.626Z,8.80
2018-12-15T16:25:34.934Z,9.30
2018-12-15T16:28:05.580Z,10.57
2018-12-15T16:30:36.048Z,9.10
2018-12-15T16:33:06.478Z,8.90
2018-12-15T16:35:36.810Z,9.60
2018-12-15T16:38:07.369Z,9.27
2018-12-15T16:40:37.869Z,9.10
2018-12-15T16:43:08.277Z,11.80
2018-12-15T16:45:38.855Z,11.80
2018-12-15T16:48:10.662Z,12.55
2018-12-15T16:50:41.062Z,11.83
2018-12-15T16:53:11.491Z,8.47
2018-12-15T16:55:41.917Z,8.40
2018-12-15T16:58:12.308Z,8.73
2018-12-15T17:00:42.786Z,11.20
2018-12-15T17:03:13.488Z,10.20
2018-12-15T17:05:43.920Z,10.50
2018-12-15T17:08:14.630Z,10.45
2018-12-15T17:10:45.268Z,10.25
2018-12-15T17:13:16.223Z,9.70
2018-12-15T17:15:46.554Z,9.75
2018-12-15T17:18:16.955Z,9.80
2018-12-15T17:20:47.359Z,10.48
2018-12-15T17:23:18.704Z,9.68
2018-12-15T17:25:49.295Z,9.85
2018-12-15T17:28:19.820Z,9.87
2018-12-15T17:30:50.368Z,10.13
2018-12-15T17:33:20.887Z,9.95
2018-12-15T17:35:51.313Z,9.00
2018-12-15T17:38:21.775Z,10.40
2018-12-15T17:40:52.373Z,10.18
2018-12-15T17:43:22.803Z,9.60
2018-12-15T17:45:53.512Z,10.28
2018-12-15T17:48:25.388Z,7.90
2018-12-15T17:51:02.983Z,8.23
2018-12-15T17:53:28.916Z,7.93
2018-12-15T17:55:59.335Z,10.03
2018-12-15T17:58:30.688Z,10.17
2018-12-15T18:01:01.131Z,10.43
2018-12-15T18:03:31.650Z,11.12
2018-12-15T18:06:02.302Z,10.20
2018-12-15T18:08:33.960Z,10.07
2018-12-15T18:11:05.785Z,10.05
2018-12-15T18:13:38.061Z,10.32
2018-12-15T18:16:08.707Z,11.43
2018-12-15T18:18:39.423Z,10.53
2018-12-15T18:21:10.149Z,10.90
2018-12-15T18:23:40.787Z,10.68
2018-12-15T18:26:11.610Z,10.53
2018-12-15T18:28:42.305Z,11.03
2018-12-15T18:31:12.774Z,10.90
2018-12-15T18:33:43.465Z,11.83
2018-12-15T18:36:13.970Z,10.78
2018-12-15T18:38:44.607Z,10.93
2018-12-15T18:41:15.078Z,11.48
2018-12-15T18:43:45.940Z,12.15
2018-12-15T18:46:16.909Z,12.27
2018-12-15T18:48:47.750Z,12.65
2018-12-15T18:51:20.514Z,12.28
2018-12-15T18:53:51.040Z,12.67
2018-12-15T18:56:21.495Z,11.63
2018-12-15T18:58:52.847Z,11.97
2018-12-15T19:01:23.691Z,12.78
2018-12-15T19:03:54.203Z,12.47
2018-12-15T19:06:24.769Z,11.35
2018-12-15T19:08:55.012Z,12.73
2018-12-15T19:11:25.569Z,12.98
2018-12-15T19:13:56.481Z,12.20
2018-12-15T19:16:26.931Z,10.13
2018-12-15T19:18:58.009Z,10.37
2018-12-15T19:21:28.496Z,12.78
2018-12-15T19:23:59.030Z,13.40
2018-12-15T19:26:29.547Z,13.70
2018-12-15T19:29:00.059Z,13.95
2018-12-15T19:31:31.219Z,14.80
2018-12-15T19:34:01.884Z,14.33
2018-12-15T19:36:32.563Z,13.78
2018-12-15T19:39:03.336Z,14.50
2018-12-15T19:41:35.028Z,14.33
2018-12-15T19:44:05.677Z,13.53
2018-12-15T19:46:36.282Z,14.13
2018-12-15T19:49:07.014Z,15.10
2018-12-15T19:51:37.331Z,20.10
2018-12-15T19:54:08.978Z,16.77
2018-12-15T19:56:39.499Z,16.48
2018-12-15T19:59:14.368Z,15.53
2018-12-15T20:01:46.183Z,13.97
2018-12-15T20:04:16.864Z,14.53
2018-12-15T20:06:47.392Z,13.50
2018-12-15T20:09:18.218Z,14.05
2018-12-15T20:11:48.780Z,13.40
2018-12-15T20:14:21.657Z,13.58
2018-12-15T20:16:52.534Z,13.22
2018-12-15T20:19:23.029Z,13.43
2018-12-15T20:21:54.451Z,13.32
2018-12-15T20:24:25.022Z,13.60
2018-12-15T20:26:56.590Z,13.58
2018-12-15T20:29:27.859Z,12.68
2018-12-15T20:31:59.040Z,9.97
2018-12-15T20:34:29.569Z,9.90
2018-12-15T20:37:01.218Z,10.00
2018-12-15T20:39:31.750Z,9.63
2018-12-15T20:42:04.820Z,9.97
2018-12-15T20:44:41.653Z,10.57
2018-12-15T20:47:08.899Z,8.60
2018-12-15T20:49:40.420Z,9.50
2018-12-15T20:52:11.100Z,10.83
2018-12-15T20:54:41.666Z,9.87
2018-12-15T20:57:12.176Z,10.27
2018-12-15T20:59:43.774Z,9.33
2018-12-15T21:02:15.054Z,10.10
2018-12-15T21:04:45.689Z,9.50
2018-12-15T21:07:16.301Z,9.33
2018-12-15T21:09:47.940Z,10.13
2018-12-15T21:12:18.536Z,8.30
2018-12-15T21:14:50.617Z,9.27
2018-12-15T21:17:21.376Z,9.70
2018-12-15T21:19:52.203Z,10.63
2018-12-15T21:22:22.720Z,9.27
2018-12-15T21:24:53.235Z,9.50
2018-12-15T21:27:23.725Z,9.63
2018-12-15T21:29:54.389Z,9.25
2018-12-15T21:32:25.006Z,9.03
2018-12-15T21:34:55.892Z,9.80
2018-12-15T21:37:26.462Z,9.70
2018-12-15T21:39:56.899Z,8.53
2018-12-15T21:42:27.499Z,9.87
2018-12-15T21:44:58.328Z,9.03
2018-12-15T21:47:30.718Z,8.30
2018-12-15T21:50:02.427Z,9.27
2018-12-15T21:52:33.211Z,8.37
2018-12-15T21:55:03.994Z,8.97
2018-12-15T21:57:34.617Z,10.07
2018-12-15T22:00:05.331Z,8.93
2018-12-15T22:02:35.764Z,10.23
2018-12-15T22:05:06.466Z,9.90
2018-12-15T22:07:37.219Z,9.27
2018-12-15T22:10:08.930Z,9.10
2018-12-15T22:12:39.537Z,9.07
2018-12-15T22:15:11.807Z,9.40
2018-12-15T22:17:42.442Z,10.10
2018-12-15T22:20:13.294Z,9.08
2018-12-15T22:22:44.073Z,9.03
2018-12-15T22:25:14.667Z,8.27
2018-12-15T22:27:45.192Z,8.33
2018-12-15T22:30:15.789Z,9.33
2018-12-15T22:32:46.426Z,8.70
2018-12-15T22:35:16.665Z,9.37
2018-12-15T22:37:47.048Z,8.27
2018-12-15T22:40:17.516Z,8.70
2018-12-15T22:42:47.914Z,8.37
2018-12-15T22:45:18.445Z,8.43
2018-12-15T22:47:48.722Z,8.63
2018-12-15T22:50:20.010Z,8.50
2018-12-15T22:52:50.608Z,8.23
2018-12-15T22:55:21.076Z,8.80
2018-12-15T22:57:51.383Z,8.27
2018-12-15T23:00:22.094Z,7.90
2018-12-15T23:02:54.694Z,9.13
2018-12-15T23:05:25.373Z,8.90
2018-12-15T23:07:55.633Z,8.70
2018-12-15T23:10:26.141Z,8.00
2018-12-15T23:12:56.457Z,7.93
2018-12-15T23:15:28.253Z,8.90
2018-12-15T23:17:58.690Z,8.27
2018-12-15T23:20:29.062Z,7.23
2018-12-15T23:22:59.319Z,7.07
2018-12-15T23:25:29.717Z,6.90
2018-12-15T23:28:00.566Z,8.30
2018-12-15T23:30:31.190Z,7.17
2018-12-15T23:33:01.612Z,8.53
2018-12-15T23:35:32.128Z,7.80
2018-12-15T23:38:02.546Z,8.47
2018-12-15T23:40:33.946Z,7.90
2018-12-15T23:43:04.657Z,8.03
2018-12-15T23:45:35.167Z,8.60
2018-12-15T23:48:05.560Z,7.83
2018-12-15T23:50:35.990Z,7.83
2018-12-15T23:53:06.506Z,7.57
2018-12-15T23:55:37.024Z,6.70
2018-12-15T23:58:07.547Z,7.90
